Time;durP1;ratioP1;P1;durP2;ratioP2;P2;SDS_P1;SDS_P2;PMS_P1;PMS_P2;Temp;Humidity;BMP_temperature;BMP_pressure;BME280_temperature;BME280_humidity;BME280_pressure;Samples;Min_cycle;Max_cycle;Signal;HPM_P1;HPM_P2
2022/11/10 00:00:19;;;;;;;21.55;13.45;;;;;;;9.40;76.91;99750.72;5095553;27;20046;-67
2022/11/10 00:03:04;;;;;;;20.52;12.68;;;;;;;9.37;77.04;99737.59;5075967;27;20039;-69
2022/11/10 00:05:48;;;;;;;20.45;11.57;;;;;;;9.39;76.95;99754.31;5093993;27;20035;-72
2022/11/10 00:08:31;;;;;;;24.05;11.50;;;;;;;9.41;76.74;99749.78;5096533;27;20035;-69
2022/11/10 00:11:14;;;;;;;20.10;12.07;;;;;;;9.38;76.59;99739.31;5096552;27;20146;-69
2022/11/10 00:17:00;;;;;;;18.27;11.45;;;;;;;9.43;76.57;99743.41;5093700;27;20043;-66
2022/11/10 00:19:43;;;;;;;19.90;12.82;;;;;;;9.40;77.21;99750.72;5077218;27;20493;-70
2022/11/10 00:22:28;;;;;;;21.88;13.60;;;;;;;9.46;76.75;99742.34;5093715;27;20180;-70
2022/11/10 00:25:11;;;;;;;19.60;13.32;;;;;;;9.39;76.68;99749.00;5093677;27;20096;-68
2022/11/10 00:27:57;;;;;;;25.45;12.50;;;;;;;9.43;76.59;99747.88;5094919;27;20035;-68
2022/11/10 00:30:40;;;;;;;20.10;12.15;;;;;;;9.44;76.86;99746.91;5095267;27;20813;-68
2022/11/10 00:33:24;;;;;;;17.92;11.38;;;;;;;9.43;76.93;99748.72;5093862;27;20714;-67
2022/11/10 00:36:08;;;;;;;17.38;12.95;;;;;;;9.37;76.44;99748.25;5078314;27;20507;-70
2022/11/10 00:38:51;;;;;;;20.38;13.38;;;;;;;9.40;76.76;99738.28;5075627;27;20026;-70
2022/11/10 00:41:34;;;;;;;18.73;11.30;;;;;;;9.43;76.68;99724.78;5075839;27;20149;-69
2022/11/10 00:44:17;;;;;;;18.80;13.40;;;;;;;9.35;76.79;99736.88;5095918;27;20034;-69
2022/11/10 00:47:00;;;;;;;22.40;13.82;;;;;;;9.36;76.88;99735.94;5083390;27;20035;-71
2022/11/10 00:49:43;;;;;;;20.30;12.85;;;;;;;9.39;76.58;99733.03;5081817;27;20035;-76
2022/11/10 00:52:27;;;;;;;24.50;12.50;;;;;;;9.27;76.69;99725.84;5068176;27;20134;-70
2022/11/10 00:55:10;;;;;;;22.70;13.40;;;;;;;9.30;76.78;99717.69;5062689;27;20035;-68
2022/11/10 00:57:53;;;;;;;22.38;12.57;;;;;;;9.44;76.26;99728.28;5082682;27;20440;-69
2022/11/10 01:00:36;;;;;;;22.05;13.77;;;;;;;9.42;76.34;99723.06;5098523;27;20528;-69
2022/11/10 01:03:20;;;;;;;20.77;12.75;;;;;;;9.44;76.44;99722.97;5097851;27;20042;-68
2022/11/10 01:06:08;;;;;;;19.60;12.80;;;;;;;9.46;76.56;99716.59;5104029;27;20395;-70
2022/11/10 01:08:51;;;;;;;18.83;13.13;;;;;;;9.45;76.51;99719.34;5103955;27;20902;-66
2022/11/10 01:11:35;;;;;;;19.25;13.25;;;;;;;9.45;76.34;99716.69;5099030;27;20383;-69
2022/11/10 01:14:18;;;;;;;20.52;12.25;;;;;;;9.45;76.33;99717.53;5100134;27;20047;-66
2022/11/10 01:17:01;;;;;;;19.20;12.15;;;;;;;9.41;76.25;99713.38;5099781;27;20035;-73
2022/11/10 01:19:44;;;;;;;20.92;13.57;;;;;;;9.41;76.44;99704.53;5097300;27;20512;-73
2022/11/10 01:22:29;;;;;;;22.52;13.35;;;;;;;9.38;76.34;99707.38;5082386;27;20051;-67
2022/11/10 01:25:12;;;;;;;22.10;13.30;;;;;;;9.35;76.53;99704.94;5081404;27;20378;-70
2022/11/10 01:27:56;;;;;;;23.13;13.80;;;;;;;9.39;76.46;99706.44;5081797;27;20038;-71
2022/11/10 01:30:39;;;;;;;25.45;14.15;;;;;;;9.31;76.85;99714.94;5097496;27;20039;-70
2022/11/10 01:33:22;;;;;;;21.35;13.20;;;;;;;9.23;76.89;99708.41;5102628;27;20039;-71
2022/11/10 01:36:07;;;;;;;21.60;12.00;;;;;;;9.25;77.29;99707.34;5097079;27;20500;-72
2022/11/10 01:38:49;;;;;;;20.30;12.57;;;;;;;9.25;77.10;99706.50;5081258;27;20085;-67
2022/11/10 01:41:32;;;;;;;24.08;13.20;;;;;;;9.23;77.11;99698.63;5102526;27;20046;-67
2022/11/10 01:44:22;;;;;;;23.38;14.60;;;;;;;9.16;77.15;99697.28;5066767;27;20035;-73
2022/11/10 01:47:05;;;;;;;23.20;13.32;;;;;;;9.20;76.85;99703.28;5101345;27;20067;-76
2022/11/10 01:49:48;;;;;;;20.20;14.15;;;;;;;9.26;77.22;99697.53;5082332;27;20043;-74
2022/11/10 01:52:32;;;;;;;18.52;12.18;;;;;;;9.20;77.25;99700.63;5080741;27;21360;-70
2022/11/10 01:55:16;;;;;;;21.10;13.20;;;;;;;9.18;77.13;99706.03;5063883;27;20050;-70
2022/11/10 01:58:00;;;;;;;20.77;13.20;;;;;;;9.17;77.25;99706.97;5097942;27;20464;-69
2022/11/10 02:00:43;;;;;;;21.75;12.52;;;;;;;9.12;77.85;99700.28;5081896;27;20043;-79
2022/11/10 02:03:50;;;;;;;20.00;12.27;;;;;;;9.15;77.54;99700.91;5107051;27;20162;-69
2022/11/10 02:06:37;;;;;;;20.05;13.32;;;;;;;9.16;77.42;99710.59;5097010;27;20050;-69
2022/11/10 02:09:20;;;;;;;19.17;12.48;;;;;;;9.14;77.44;99709.00;5104758;27;20245;-66
2022/11/10 02:12:04;;;;;;;19.05;13.85;;;;;;;9.12;77.62;99705.59;5097472;27;20062;-68
2022/11/10 02:14:48;;;;;;;22.05;13.77;;;;;;;9.11;77.29;99702.06;5097440;27;20043;-69
2022/11/10 02:17:31;;;;;;;19.85;13.57;;;;;;;9.07;77.50;99705.88;5095249;27;20118;-77
2022/11/10 02:20:18;;;;;;;17.70;12.30;;;;;;;9.08;77.52;99711.09;5098054;27;20069;-71
2022/11/10 02:23:34;;;;;;;21.15;13.80;;;;;;;9.09;77.48;99704.81;5099873;27;20103;-69
2022/11/10 02:26:28;;;;;;;22.60;13.05;;;;;;;9.06;77.37;99701.50;5061392;28;20112;-72
2022/11/10 02:29:12;;;;;;;20.00;14.13;;;;;;;8.97;77.45;99715.38;5077946;28;20070;-71
2022/11/10 02:31:56;;;;;;;20.52;13.57;;;;;;;8.94;77.96;99705.78;5081478;27;20085;-68
2022/11/10 02:34:39;;;;;;;20.63;12.65;;;;;;;8.89;78.56;99715.03;5078545;28;20039;-67
2022/11/10 02:37:22;;;;;;;24.15;13.20;;;;;;;8.85;78.22;99706.38;5091671;27;20043;-66
2022/11/10 02:40:06;;;;;;;25.20;13.10;;;;;;;8.82;78.25;99714.56;5077303;28;20481;-67
2022/11/10 02:42:49;;;;;;;19.42;13.55;;;;;;;8.73;78.97;99702.69;5094588;27;20052;-67
2022/11/10 02:45:33;;;;;;;21.95;13.52;;;;;;;8.85;78.46;99711.72;5083684;27;20044;-69
2022/11/10 02:48:16;;;;;;;18.08;12.55;;;;;;;8.84;77.91;99717.13;5075841;28;20047;-67
2022/11/10 02:50:59;;;;;;;21.27;13.10;;;;;;;8.78;78.06;99712.19;5075801;28;20175;-66
2022/11/10 02:53:43;;;;;;;24.15;12.82;;;;;;;8.81;78.33;99715.50;5075704;28;20070;-68
2022/11/10 02:56:26;;;;;;;24.13;15.57;;;;;;;8.74;78.30;99709.72;5060301;28;20043;-68
2022/11/10 02:59:09;;;;;;;18.90;11.32;;;;;;;8.75;78.51;99715.91;5057801;28;20038;-67
2022/11/10 03:01:52;;;;;;;20.58;11.45;;;;;;;8.74;78.43;99716.84;5043210;28;20046;-74
2022/11/10 03:04:35;;;;;;;24.05;13.10;;;;;;;8.71;78.65;99712.56;5061202;28;20176;-74
2022/11/10 03:07:18;;;;;;;27.20;15.18;;;;;;;8.76;78.56;99714.09;5053688;27;20039;-74
2022/11/10 03:10:01;;;;;;;19.88;13.52;;;;;;;8.73;78.45;99707.16;5062223;28;20040;-74
2022/11/10 03:12:44;;;;;;;22.10;13.77;;;;;;;8.78;78.36;99712.19;5072936;27;20051;-70
2022/11/10 03:15:30;;;;;;;23.00;13.85;;;;;;;8.81;78.27;99714.63;5063620;28;20490;-69
2022/11/10 03:18:14;;;;;;;21.10;12.80;;;;;;;8.88;77.85;99716.84;5076770;27;20501;-67
2022/11/10 03:20:57;;;;;;;23.95;13.93;;;;;;;8.89;77.75;99715.03;5059354;28;20150;-69
2022/11/10 03:23:40;;;;;;;20.70;13.30;;;;;;;8.91;77.75;99708.69;5083851;27;20114;-69
2022/11/10 03:26:24;;;;;;;21.42;13.90;;;;;;;8.92;77.62;99707.69;5063019;28;20058;-71
2022/11/10 03:29:07;;;;;;;23.85;14.27;;;;;;;8.86;77.89;99710.75;5077551;27;20050;-69
2022/11/10 03:31:50;;;;;;;20.92;13.60;;;;;;;8.84;77.99;99702.03;5058322;28;20061;-67
2022/11/10 03:34:33;;;;;;;23.75;13.27;;;;;;;8.83;77.98;99702.97;5079578;28;20050;-68
2022/11/10 03:37:16;;;;;;;21.10;14.73;;;;;;;8.82;77.85;99709.22;5075644;28;20051;-68
2022/11/10 03:40:00;;;;;;;19.17;13.30;;;;;;;8.83;78.02;99712.75;5070554;28;20035;-67
2022/11/10 03:42:44;;;;;;;21.15;14.18;;;;;;;8.82;77.29;99706.56;5093699;27;20038;-67
2022/11/10 03:45:28;;;;;;;;;;;;;;;8.87;77.50;99706.28;5064797;28;20052;-67
2022/11/10 03:48:12;;;;;;;19.52;11.68;;;;;;;8.90;77.54;99693.66;5059147;28;19927;-68
2022/11/10 03:50:55;;;;;;;25.00;13.55;;;;;;;8.85;77.34;99685.13;5055933;28;20035;-67
2022/11/10 03:53:39;;;;;;;19.95;13.25;;;;;;;8.79;77.39;99679.34;5074066;28;20126;-67
2022/11/10 03:56:22;;;;;;;26.15;13.63;;;;;;;8.71;77.72;99679.81;5059438;28;20039;-66
2022/11/10 03:59:05;;;;;;;25.25;14.57;;;;;;;8.52;78.17;99679.28;5075301;28;20042;-65
2022/11/10 04:01:49;;;;;;;20.50;13.70;;;;;;;8.63;78.30;99692.75;5078126;27;20048;-65
2022/11/10 04:10:36;;;;;;;23.98;14.07;;;;;;;8.66;77.92;99681.94;5075486;28;20035;-65
2022/11/10 04:16:21;;;;;;;21.90;13.63;;;;;;;8.64;77.91;99684.69;5075834;28;20073;-66
2022/11/10 04:19:04;;;;;;;19.95;12.82;;;;;;;8.65;77.54;99690.84;5059204;28;20119;-65
2022/11/10 04:21:48;;;;;;;21.65;15.38;;;;;;;8.50;77.65;99679.38;5080033;27;20260;-67
2022/11/10 04:24:31;;;;;;;23.67;14.93;;;;;;;8.38;78.21;99683.63;5095534;27;20047;-69
2022/11/10 04:27:14;;;;;;;23.15;14.70;;;;;;;8.47;78.05;99679.56;5077574;27;20043;-66
2022/11/10 04:29:57;;;;;;;23.70;14.68;;;;;;;8.40;78.16;99683.53;5095874;27;20111;-67
2022/11/10 04:32:40;;;;;;;21.95;13.40;;;;;;;8.44;78.49;99679.75;5101459;27;20173;-66
2022/11/10 04:35:23;;;;;;;21.45;13.68;;;;;;;8.40;78.27;99702.16;5112843;27;20409;-66
2022/11/10 04:38:07;;;;;;;21.70;14.23;;;;;;;8.43;78.49;99695.78;5112160;27;20035;-67
2022/11/10 04:40:50;;;;;;;25.20;14.77;;;;;;;8.40;78.04;99696.84;5122344;27;20098;-65
2022/11/10 04:43:34;;;;;;;20.75;12.48;;;;;;;8.43;77.66;99711.72;5119376;27;20050;-65
2022/11/10 04:46:29;;;;;;;24.73;12.77;;;;;;;8.48;77.50;99709.63;5120440;27;20035;-66
2022/11/10 04:49:12;;;;;;;23.07;15.23;;;;;;;8.29;77.68;99709.88;5120457;27;20102;-65
2022/11/10 04:51:55;;;;;;;20.70;13.98;;;;;;;8.32;77.56;99717.72;5112803;27;20071;-65
2022/11/10 04:54:38;;;;;;;19.33;12.13;;;;;;;8.29;77.67;99710.75;5091065;27;20063;-65
2022/11/10 04:57:21;;;;;;;23.10;13.25;;;;;;;8.26;77.54;99713.56;5098886;27;20042;-65
2022/11/10 05:00:06;;;;;;;21.08;14.60;;;;;;;8.14;77.36;99710.81;5080038;27;20493;-66
2022/11/10 05:02:49;;;;;;;23.45;14.93;;;;;;;8.12;77.81;99702.97;5098814;27;20050;-65
2022/11/10 05:05:33;;;;;;;22.52;14.60;;;;;;;7.96;78.05;99710.13;5074580;27;20031;-65
2022/11/10 05:08:16;;;;;;;23.08;14.52;;;;;;;7.97;77.91;99702.06;5100981;27;20126;-67
2022/11/10 05:10:59;;;;;;;25.65;14.00;;;;;;;7.97;78.21;99702.06;5098436;27;20038;-65
2022/11/10 05:13:44;;;;;;;26.00;15.95;;;;;;;7.84;77.93;99709.03;5098328;27;20050;-66
2022/11/10 05:16:27;;;;;;;;;;;;;;;8.00;77.94;99709.84;5080626;27;20050;-68
2022/11/10 05:19:10;;;;;;;19.88;12.45;;;;;;;7.91;77.98;99712.19;5098157;27;19916;-66
2022/11/10 05:21:53;;;;;;;21.02;14.65;;;;;;;7.77;78.36;99715.69;5097956;27;20047;-67
2022/11/10 05:24:37;;;;;;;28.05;13.82;;;;;;;7.71;78.41;99712.50;5079764;27;20078;-68
2022/11/10 05:27:20;;;;;;;21.95;12.85;;;;;;;7.74;77.82;99710.53;5097984;27;20031;-66
2022/11/10 05:30:03;;;;;;;21.88;14.77;;;;;;;7.65;78.04;99708.44;5082297;27;20081;-68
2022/11/10 05:32:46;;;;;;;18.95;13.07;;;;;;;7.65;77.93;99714.59;5097786;27;20545;-68
2022/11/10 05:35:30;;;;;;;23.83;14.60;;;;;;;7.69;77.97;99714.38;5098213;27;20042;-68
2022/11/10 05:38:13;;;;;;;21.98;11.63;;;;;;;7.70;77.79;99718.75;5098032;27;20035;-67
2022/11/10 05:40:56;;;;;;;16.67;11.90;;;;;;;7.75;77.35;99719.34;5098319;27;20038;-71
2022/11/10 05:43:40;;;;;;;16.25;11.05;;;;;;;7.74;77.51;99709.69;5097740;27;20130;-66
2022/11/10 05:46:24;;;;;;;18.02;12.38;;;;;;;7.79;77.27;99703.16;5084772;27;20073;-68
2022/11/10 05:49:07;;;;;;;19.73;11.73;;;;;;;7.84;77.42;99709.03;5085497;27;20039;-68
2022/11/10 05:51:50;;;;;;;20.45;12.45;;;;;;;7.78;77.12;99716.53;5098164;27;20047;-68
2022/11/10 05:54:33;;;;;;;20.15;12.75;;;;;;;7.70;77.46;99710.78;5097781;27;20046;-65
2022/11/10 05:57:17;;;;;;;18.58;11.50;;;;;;;7.92;76.30;99704.13;5097598;27;20047;-66
2022/11/10 06:00:01;;;;;;;21.15;11.38;;;;;;;7.80;77.05;99714.63;5097509;27;20039;-65
2022/11/10 06:02:45;;;;;;;19.58;11.70;;;;;;;7.84;76.94;99710.84;5097486;27;20489;-66
2022/11/10 06:05:31;;;;;;;23.03;11.20;;;;;;;7.83;76.50;99717.09;5081758;27;20043;-66
2022/11/10 06:08:13;;;;;;;22.23;11.15;;;;;;;7.80;76.34;99714.63;5082321;27;20047;-66
2022/11/10 06:10:57;;;;;;;21.60;11.25;;;;;;;7.81;76.36;99705.72;5087568;27;20106;-66
2022/11/10 06:13:40;;;;;;;17.70;12.43;;;;;;;7.76;76.13;99710.44;5097333;27;20031;-66
2022/11/10 06:16:23;;;;;;;18.25;10.90;;;;;;;7.76;76.25;99708.66;5078825;27;20070;-66
2022/11/10 06:19:06;;;;;;;15.73;10.23;;;;;;;7.84;76.33;99703.75;5099153;27;20035;-67
2022/11/10 06:21:50;;;;;;;19.15;11.15;;;;;;;7.91;75.87;99709.53;5079720;27;20043;-66
2022/11/10 06:24:33;;;;;;;18.80;12.38;;;;;;;7.71;76.33;99715.16;5097699;27;20486;-66
2022/11/10 06:27:16;;;;;;;18.90;10.25;;;;;;;7.77;76.01;99722.78;5082093;27;20047;-66
2022/11/10 06:29:59;;;;;;;18.27;10.48;;;;;;;7.78;75.57;99724.50;5081560;27;20520;-65
2022/11/10 06:32:43;;;;;;;17.13;11.07;;;;;;;7.80;75.94;99719.91;5098218;27;20054;-66
2022/11/10 06:35:27;;;;;;;21.47;10.50;;;;;;;7.88;75.86;99729.16;5100295;27;20042;-66
2022/11/10 06:38:11;;;;;;;19.88;12.35;;;;;;;7.90;75.55;99727.25;5101122;27;20046;-66
2022/11/10 06:40:55;;;;;;;16.63;10.38;;;;;;;7.80;75.36;99711.97;5099562;27;20035;-68
2022/11/10 06:43:38;;;;;;;19.70;10.88;;;;;;;7.93;75.15;99715.59;5097179;27;20417;-69
2022/11/10 06:46:21;;;;;;;19.73;11.77;;;;;;;7.89;75.16;99716.75;5103707;27;20163;-66
2022/11/10 06:49:04;;;;;;;18.90;10.70;;;;;;;8.02;75.11;99715.06;5103953;27;20170;-66
2022/11/10 06:51:48;;;;;;;15.43;10.23;;;;;;;7.96;74.60;99723.41;5097860;27;20070;-66
2022/11/10 06:54:31;;;;;;;19.25;10.60;;;;;;;8.08;74.73;99725.31;5096277;27;20046;-66
2022/11/10 06:57:15;;;;;;;22.27;11.77;;;;;;;8.08;74.31;99721.81;5097091;27;20043;-66
2022/11/10 06:59:58;;;;;;;22.60;10.85;;;;;;;8.09;74.27;99723.53;5078043;27;20047;-66
2022/11/10 07:02:41;;;;;;;18.30;11.68;;;;;;;8.21;73.98;99722.78;5096653;27;20042;-67
2022/11/10 07:05:25;;;;;;;16.83;9.45;;;;;;;8.44;73.38;99700.16;5097019;27;20125;-66
2022/11/10 07:08:17;;;;;;;18.17;11.63;;;;;;;8.56;73.07;99712.69;5097586;27;20074;-65
2022/11/10 07:11:00;;;;;;;22.73;11.05;;;;;;;8.60;72.29;99722.16;5097865;27;20045;-69
2022/11/10 07:13:43;;;;;;;16.98;11.10;;;;;;;8.74;72.60;99723.00;5099252;27;20540;-67
2022/11/10 07:16:27;;;;;;;27.55;12.73;;;;;;;8.73;72.21;99715.13;5107601;27;20042;-67
2022/11/10 07:19:10;;;;;;;24.52;12.40;;;;;;;8.46;72.13;99712.41;5124257;27;20125;-67
2022/11/10 07:21:53;;;;;;;19.30;12.32;;;;;;;8.64;72.36;99721.03;5105597;27;20512;-66
2022/11/10 07:24:36;;;;;;;21.20;10.80;;;;;;;8.74;71.58;99725.66;5097753;27;20072;-68
2022/11/10 07:27:19;;;;;;;16.02;9.02;;;;;;;8.94;72.06;99734.19;5071364;27;20038;-66
2022/11/10 07:30:04;;;;;;;16.10;10.80;;;;;;;8.99;71.58;99726.78;5101921;27;20039;-68
2022/11/10 07:33:03;;;;;;;20.73;10.75;;;;;;;9.16;70.73;99728.34;5079037;27;20095;-67
2022/11/10 07:35:55;;;;;;;15.90;11.85;;;;;;;9.28;70.14;99720.44;5102708;27;20042;-67
2022/11/10 07:38:38;;;;;;;23.60;12.32;;;;;;;9.33;69.74;99721.00;5115142;27;20038;-67
2022/11/10 07:41:22;;;;;;;21.50;12.68;;;;;;;9.21;69.83;99720.94;5096134;27;20047;-67
2022/11/10 07:44:05;;;;;;;15.93;9.55;;;;;;;9.25;69.64;99733.97;5077850;27;20088;-67
2022/11/10 07:46:48;;;;;;;27.17;12.40;;;;;;;9.08;70.74;99728.84;5104899;27;20413;-66
2022/11/10 07:49:31;;;;;;;26.75;13.55;;;;;;;8.78;71.42;99739.63;5098660;27;20062;-66
2022/11/10 07:52:14;;;;;;;22.63;12.50;;;;;;;8.84;71.54;99739.25;5096118;27;20042;-67
2022/11/10 07:54:58;;;;;;;21.27;10.88;;;;;;;8.89;71.45;99741.63;5096051;27;20534;-67
2022/11/10 07:57:41;;;;;;;19.30;11.88;;;;;;;8.84;71.67;99744.56;5110577;27;20094;-67
2022/11/10 08:00:25;;;;;;;26.13;13.05;;;;;;;8.87;71.64;99744.38;5096178;27;20493;-68
2022/11/10 08:03:14;;;;;;;18.80;10.52;;;;;;;8.92;71.39;99734.28;5095683;27;20047;-67
2022/11/10 08:05:57;;;;;;;16.40;11.15;;;;;;;8.73;72.05;99736.41;5094862;27;20035;-66
2022/11/10 08:08:40;;;;;;;20.20;12.68;;;;;;;8.64;71.51;99737.84;5095851;27;20050;-66
2022/11/10 08:11:24;;;;;;;29.08;12.45;;;;;;;8.63;72.37;99735.25;5095878;27;20051;-66
2022/11/10 08:14:07;;;;;;;21.45;11.57;;;;;;;8.66;72.01;99727.13;5095652;27;20043;-67
2022/11/10 08:16:51;;;;;;;20.30;11.93;;;;;;;8.63;72.01;99725.50;5095575;27;20060;-66
2022/11/10 08:19:34;;;;;;;17.77;12.13;;;;;;;8.70;72.07;99731.25;5095473;27;20039;-67
2022/11/10 08:22:17;;;;;;;25.20;13.35;;;;;;;8.51;72.45;99723.59;5095401;27;20046;-66
2022/11/10 08:25:01;;;;;;;21.90;12.82;;;;;;;8.56;72.51;99731.28;5095239;27;20050;-66
2022/11/10 08:27:44;;;;;;;17.48;12.23;;;;;;;8.54;72.79;99718.09;5097010;27;20039;-68
2022/11/10 08:30:28;;;;;;;23.17;12.60;;;;;;;8.59;72.42;99720.44;5100245;27;20046;-66
2022/11/10 08:33:13;;;;;;;20.60;11.60;;;;;;;8.66;72.29;99735.94;5095670;27;20522;-68
2022/11/10 08:35:56;;;;;;;25.33;12.02;;;;;;;8.56;72.48;99718.00;5096995;27;20078;-67
2022/11/10 08:38:40;;;;;;;19.83;12.32;;;;;;;8.59;72.56;99721.31;5095462;27;20036;-68
2022/11/10 08:41:23;;;;;;;29.55;14.20;;;;;;;8.67;72.65;99726.16;5096162;27;20050;-67
2022/11/10 08:44:06;;;;;;;27.65;14.15;;;;;;;8.72;72.20;99727.56;5084582;27;20522;-66
2022/11/10 08:46:49;;;;;;;21.60;12.95;;;;;;;8.83;72.11;99731.34;5116243;27;20416;-68
2022/11/10 08:49:32;;;;;;;22.52;12.85;;;;;;;9.03;72.07;99738.91;5097731;27;20031;-70
2022/11/10 08:52:15;;;;;;;18.80;11.77;;;;;;;9.17;71.22;99728.25;5095608;27;20058;-68
2022/11/10 08:54:59;;;;;;;19.63;12.68;;;;;;;9.35;71.04;99723.56;5080041;28;20039;-67
2022/11/10 08:57:42;;;;;;;24.33;13.07;;;;;;;9.40;70.71;99721.44;5095388;27;20043;-66
2022/11/10 09:00:27;;;;;;;21.85;13.45;;;;;;;9.49;70.03;99720.84;5095807;27;20405;-67
2022/11/10 09:03:12;;;;;;;23.83;14.60;;;;;;;9.57;69.77;99720.34;5076659;28;20039;-65
2022/11/10 09:05:56;;;;;;;24.17;14.25;;;;;;;9.62;69.85;99719.09;5095515;27;20512;-66
2022/11/10 09:08:39;;;;;;;21.77;13.05;;;;;;;9.65;69.09;99718.03;5079607;28;20054;-67
2022/11/10 09:11:22;;;;;;;22.13;13.52;;;;;;;9.64;69.14;99724.31;5109790;27;20524;-66
2022/11/10 09:14:06;;;;;;;26.08;12.73;;;;;;;9.62;69.86;99724.41;5095521;27;20042;-69
2022/11/10 09:16:49;;;;;;;20.58;13.00;;;;;;;9.52;69.33;99725.97;5114307;27;20038;-68
2022/11/10 09:19:32;;;;;;;21.25;12.88;;;;;;;9.55;69.98;99719.59;5106500;27;20042;-66
2022/11/10 09:22:16;;;;;;;25.50;14.52;;;;;;;9.50;69.62;99722.53;5098672;27;20054;-67
2022/11/10 09:24:59;;;;;;;25.95;14.50;;;;;;;9.39;69.97;99725.06;5098442;27;20038;-68
2022/11/10 09:27:43;;;;;;;21.52;13.18;;;;;;;9.46;70.40;99719.25;5098651;27;20043;-67
2022/11/10 09:30:26;;;;;;;25.05;14.30;;;;;;;9.33;69.88;99717.50;5098461;27;20501;-66
2022/11/10 09:33:10;;;;;;;21.48;13.25;;;;;;;9.44;70.47;99722.97;5098335;27;20043;-67
2022/11/10 09:35:58;;;;;;;23.93;14.23;;;;;;;9.42;70.32;99715.09;5100644;27;20039;-66
2022/11/10 09:38:41;;;;;;;23.13;14.85;;;;;;;9.53;70.01;99714.38;5084269;27;20469;-67
2022/11/10 09:41:28;;;;;;;26.25;11.88;;;;;;;9.66;69.95;99709.94;5098452;27;20046;-67
2022/11/10 09:44:21;;;;;;;25.77;14.18;;;;;;;9.54;69.66;99705.44;5098404;27;20035;-67
2022/11/10 09:47:13;;;;;;;22.80;13.68;;;;;;;9.51;70.07;99708.28;5109126;27;20129;-67
2022/11/10 09:49:59;;;;;;;22.65;13.43;;;;;;;9.48;70.20;99697.84;5111907;27;20382;-67
2022/11/10 09:52:44;;;;;;;28.52;13.98;;;;;;;9.46;69.80;99699.78;5098089;27;20062;-68
2022/11/10 09:55:42;;;;;;;25.25;15.20;;;;;;;9.32;70.52;99702.47;5082608;27;20414;-68
2022/11/10 09:58:32;;;;;;;24.80;14.60;;;;;;;9.36;70.92;99696.88;5098197;27;20043;-71
2022/11/10 10:01:44;;;;;;;27.52;15.70;;;;;;;9.40;70.62;99701.03;5082425;27;20051;-70
2022/11/10 10:04:45;;;;;;;30.48;14.73;;;;;;;9.50;69.94;99705.72;5097616;27;20414;-72
2022/11/10 10:07:32;;;;;;;24.25;14.93;;;;;;;9.58;69.86;99704.28;5079692;27;20043;-72
2022/11/10 10:10:24;;;;;;;29.85;16.55;;;;;;;9.63;69.37;99699.50;5102172;27;20114;-71
2022/11/10 10:13:17;;;;;;;26.83;15.27;;;;;;;9.75;69.63;99697.81;5082705;27;20034;-71
2022/11/10 10:16:30;;;;;;;24.77;13.65;;;;;;;9.80;69.98;99704.56;5084775;27;20485;-69
2022/11/10 10:19:43;;;;;;;25.38;14.60;;;;;;;9.64;69.98;99700.34;5103460;27;20097;-71
2022/11/10 10:22:40;;;;;;;25.88;14.98;;;;;;;9.63;70.24;99693.31;5090033;27;20057;-71
2022/11/10 10:25:25;;;;;;;;;;;;;;;9.69;69.87;99696.44;5125735;27;20122;-69
2022/11/10 10:28:24;;;;;;;24.08;13.48;;;;;;;9.71;69.64;99701.63;5121712;27;20078;-70
2022/11/10 10:31:16;;;;;;;20.98;12.32;;;;;;;9.61;70.52;99695.22;5108907;27;20143;-66
2022/11/10 10:34:01;;;;;;;27.80;15.00;;;;;;;9.59;70.40;99706.00;5099777;27;20604;-69
2022/11/10 10:36:44;;;;;;;31.10;14.73;;;;;;;9.59;70.26;99697.16;5081518;27;20095;-67
2022/11/10 10:39:35;;;;;;;30.08;15.18;;;;;;;9.72;70.43;99708.66;5083727;27;20397;-69
2022/11/10 10:42:32;;;;;;;25.67;14.85;;;;;;;9.78;69.92;99711.78;5081510;27;20106;-67
2022/11/10 10:45:31;;;;;;;24.00;15.25;;;;;;;9.80;70.16;99703.72;5103170;27;20051;-68
2022/11/10 10:48:26;;;;;;;27.75;16.88;;;;;;;9.83;69.58;99707.00;5087586;27;20580;-69
2022/11/10 10:51:26;;;;;;;26.25;13.73;;;;;;;9.98;69.71;99712.25;5087661;27;20039;-68
2022/11/10 10:54:31;;;;;;;29.13;15.98;;;;;;;9.99;69.30;99705.97;5114632;27;20083;-68
2022/11/10 10:57:28;;;;;;;25.65;15.30;;;;;;;9.79;70.33;99702.84;5085627;27;20139;-70
2022/11/10 11:00:17;;;;;;;24.98;16.38;;;;;;;9.70;70.68;99702.63;5103519;27;20067;-69
2022/11/10 11:03:12;;;;;;;26.52;15.70;;;;;;;9.81;70.43;99713.41;5101952;27;20047;-68
2022/11/10 11:06:07;;;;;;;27.75;17.85;;;;;;;9.76;70.46;99705.72;5079163;27;20031;-66
2022/11/10 11:09:21;;;;;;;26.45;15.73;;;;;;;9.67;70.44;99695.69;5107646;27;20054;-71
2022/11/10 11:12:24;;;;;;;28.95;15.70;;;;;;;9.75;70.47;99701.34;5099513;27;20074;-72
2022/11/10 11:15:11;;;;;;;23.70;15.13;;;;;;;9.72;70.74;99695.34;5083473;27;20034;-68
2022/11/10 11:18:01;;;;;;;25.35;14.38;;;;;;;9.77;70.62;99691.44;5104375;27;20556;-72
2022/11/10 11:21:12;;;;;;;25.02;14.20;;;;;;;9.81;70.51;99703.59;5117010;27;20046;-70
2022/11/10 11:23:58;;;;;;;28.90;15.65;;;;;;;9.82;70.22;99699.97;5119289;27;20103;-68
2022/11/10 11:27:26;;;;;;;26.80;16.15;;;;;;;9.85;70.40;99696.25;5104285;27;20481;-68
2022/11/10 11:30:15;;;;;;;22.70;14.18;;;;;;;9.85;70.44;99706.91;5036676;28;20589;-70
2022/11/10 11:33:15;;;;;;;31.13;15.48;;;;;;;9.89;70.52;99702.22;5021181;28;20048;-71
2022/11/10 11:36:13;;;;;;;26.63;16.58;;;;;;;9.83;70.92;99714.97;5036312;28;20048;-75
2022/11/10 11:39:07;;;;;;;28.02;14.77;;;;;;;9.72;70.80;99722.84;5036245;28;20131;-77
2022/11/10 11:42:03;;;;;;;27.30;15.35;;;;;;;9.77;70.60;99712.75;5024192;28;20085;-75
2022/11/10 11:45:19;;;;;;;21.23;13.57;;;;;;;9.83;70.82;99708.81;5025653;28;20067;-77
2022/11/10 11:48:27;;;;;;;26.30;16.17;;;;;;;9.82;71.18;99712.41;5038570;28;20040;-72
2022/11/10 11:51:44;;;;;;;23.65;13.27;;;;;;;9.86;70.81;99707.75;5035749;28;20423;-73
2022/11/10 11:54:54;;;;;;;33.08;15.90;;;;;;;9.84;70.87;99708.69;5039088;28;20058;-73
2022/11/10 11:58:04;;;;;;;29.52;14.95;;;;;;;9.83;70.79;99699.00;5037553;28;20460;-67
2022/11/10 12:01:11;;;;;;;31.05;15.35;;;;;;;9.88;71.17;99706.69;5020228;28;20051;-70
2022/11/10 12:03:57;;;;;;;27.65;14.70;;;;;;;9.80;70.98;99706.38;4994637;28;20048;-74
2022/11/10 12:06:56;;;;;;;25.75;14.98;;;;;;;9.79;71.17;99712.66;5075950;27;20089;-72
2022/11/10 12:09:47;;;;;;;27.17;14.68;;;;;;;9.82;71.23;99702.63;5101826;27;20137;-71
2022/11/10 12:12:41;;;;;;;23.17;14.60;;;;;;;9.88;70.71;99693.38;5098006;27;20070;-71
2022/11/10 12:15:47;;;;;;;34.22;15.63;;;;;;;9.87;70.71;99688.16;5096309;27;20420;-72
2022/11/10 12:18:35;;;;;;;25.85;13.95;;;;;;;9.76;71.18;99694.22;5097864;27;20081;-72
2022/11/10 12:21:41;;;;;;;25.50;14.68;;;;;;;9.77;70.89;99696.78;5096812;27;20130;-71
2022/11/10 12:24:50;;;;;;;26.30;15.75;;;;;;;9.66;71.19;99701.09;5098140;27;20520;-75
2022/11/10 12:27:39;;;;;;;23.45;15.50;;;;;;;9.53;71.86;99717.03;5097417;27;20047;-70
2022/11/10 12:30:22;;;;;;;30.48;17.55;;;;;;;9.55;71.83;99730.25;5077334;28;20133;-70
2022/11/10 12:33:27;;;;;;;32.25;17.50;;;;;;;9.70;71.46;99743.41;5109980;27;20409;-72
2022/11/10 12:36:13;;;;;;;27.10;16.90;;;;;;;9.62;71.48;99734.19;5095493;27;20079;-71
2022/11/10 12:38:56;;;;;;;25.77;16.48;;;;;;;9.58;71.52;99736.22;5095372;27;20401;-71
2022/11/10 12:41:45;;;;;;;31.42;18.13;;;;;;;9.60;71.41;99733.44;5095347;27;20119;-69
2022/11/10 12:44:35;;;;;;;28.90;17.17;;;;;;;9.46;71.75;99727.25;5095397;27;20518;-70
2022/11/10 12:47:21;;;;;;;32.22;16.27;;;;;;;9.54;71.27;99752.47;5108502;27;20087;-71
2022/11/10 12:50:38;;;;;;;31.52;15.88;;;;;;;9.62;71.67;99737.72;5088938;28;20391;-72
2022/11/10 12:53:35;;;;;;;26.80;16.40;;;;;;;9.61;71.45;99746.66;5099848;27;20084;-72
2022/11/10 12:56:25;;;;;;;33.88;18.45;;;;;;;9.54;71.35;99740.03;5100321;27;20050;-70
2022/11/10 12:59:19;;;;;;;29.95;15.98;;;;;;;9.60;70.89;99752.94;5099637;27;20043;-71
2022/11/10 13:02:24;;;;;;;31.50;18.00;;;;;;;9.57;71.09;99749.63;5099009;27;20422;-72
2022/11/10 13:05:13;;;;;;;28.85;16.05;;;;;;;9.50;71.79;99741.19;5099127;27;20074;-72
2022/11/10 13:08:11;;;;;;;30.67;17.67;;;;;;;9.48;71.62;99748.41;5099158;27;20045;-71
2022/11/10 13:11:00;;;;;;;31.95;18.00;;;;;;;9.44;71.64;99744.25;5099101;27;20062;-70